Time;durP1;ratioP1;P1;durP2;ratioP2;P2;SDS_P1;SDS_P2;PMS_P1;PMS_P2;Temp;Humidity;BMP_temperature;BMP_pressure;BME280_temperature;BME280_humidity;BME280_pressure;Samples;Min_cycle;Max_cycle;Signal;HPM_P1;HPM_P2
2023/09/03 00:01:43;;;;;;;9.13;8.25;;;16.50;1.00;;;;;;5077711;28;20239;-83
2023/09/03 00:04:09;;;;;;;9.15;8.38;;;16.50;1.00;;;;;;5097273;28;20185;-84
2023/09/03 00:06:35;;;;;;;9.82;8.82;;;16.50;1.00;;;;;;5077298;28;20917;-83
2023/09/03 00:09:00;;;;;;;10.32;9.32;;;16.50;1.00;;;;;;5094999;28;20238;-84
2023/09/03 00:11:26;;;;;;;8.70;8.00;;;16.50;1.00;;;;;;5078592;28;20177;-84
2023/09/03 00:13:51;;;;;;;9.55;8.75;;;16.50;1.00;;;;;;5077983;28;20273;-85
2023/09/03 00:16:17;;;;;;;9.98;8.98;;;16.40;1.00;;;;;;5077510;28;20716;-83
2023/09/03 00:18:43;;;;;;;10.30;9.40;;;16.50;1.00;;;;;;5077077;28;20208;-83
2023/09/03 00:21:08;;;;;;;10.60;9.52;;;16.30;99.90;;;;;;5076540;28;20208;-83
2023/09/03 00:23:34;;;;;;;9.85;8.98;;;16.20;99.90;;;;;;5096575;28;20172;-84
2023/09/03 00:26:01;;;;;;;11.57;10.48;;;16.20;1.00;;;;;;5086120;28;20677;-83
2023/09/03 00:28:28;;;;;;;10.27;9.38;;;16.10;1.00;;;;;;5093674;28;20192;-83
2023/09/03 00:31:06;;;;;;;10.15;9.32;;;16.10;1.00;;;;;;5085573;28;20180;-83
2023/09/03 00:33:32;;;;;;;11.85;9.43;;;16.10;58.80;;;;;;5081163;28;20222;-83
2023/09/03 00:36:00;;;;;;;11.23;10.13;;;16.20;1.00;;;;;;5105469;28;20199;-84
2023/09/03 00:38:25;;;;;;;10.27;9.38;;;16.20;1.00;;;;;;5104727;28;20222;-86
2023/09/03 00:40:51;;;;;;;10.90;9.80;;;16.20;1.00;;;;;;5086296;28;20204;-83
2023/09/03 00:43:17;;;;;;;10.00;9.05;;;16.20;99.90;;;;;;5103880;28;20172;-88
2023/09/03 00:45:43;;;;;;;10.45;9.15;;;16.20;99.90;;;;;;5087764;28;20626;-83
2023/09/03 00:48:12;;;;;;;9.82;8.95;;;16.20;99.90;;;;;;5089038;28;20188;-84
2023/09/03 00:50:38;;;;;;;9.23;8.43;;;16.20;99.90;;;;;;5104898;28;20279;-88
2023/09/03 00:53:06;;;;;;;10.23;9.23;;;16.20;1.00;;;;;;5083564;28;20184;-84
2023/09/03 00:55:32;;;;;;;9.70;8.80;;;16.20;99.90;;;;;;5085447;28;20646;-84
2023/09/03 00:57:58;;;;;;;10.20;9.30;;;16.20;99.90;;;;;;5077247;28;20288;-84
2023/09/03 01:00:25;;;;;;;9.85;8.88;;;16.20;99.90;;;;;;5094934;28;20207;-84
2023/09/03 01:02:55;;;;;;;9.88;9.07;;;16.20;99.90;;;;;;5078344;28;20760;-86
2023/09/03 01:05:21;;;;;;;10.48;9.48;;;16.20;99.90;;;;;;5084971;28;20609;-83
2023/09/03 01:07:48;;;;;;;10.13;9.32;;;16.30;99.90;;;;;;5095437;28;20173;-83
2023/09/03 01:10:14;;;;;;;9.45;8.55;;;16.20;99.90;;;;;;5095444;28;20203;-84
2023/09/03 01:13:09;;;;;;;10.25;9.23;;;16.20;1.00;;;;;;5077101;28;20285;-85
2023/09/03 01:15:40;;;;;;;9.73;8.68;;;16.10;60.50;;;;;;5077188;28;20182;-85
2023/09/03 01:18:16;;;;;;;9.95;8.95;;;16.10;1.00;;;;;;5077171;28;20195;-85
2023/09/03 01:20:52;;;;;;;9.48;8.38;;;16.00;1.00;;;;;;5093943;28;20214;-84
2023/09/03 01:24:10;;;;;;;9.60;8.70;;;16.00;1.00;;;;;;5095148;28;20175;-83
2023/09/03 01:27:06;;;;;;;8.82;8.10;;;15.90;1.00;;;;;;5008515;28;20330;-83
2023/09/03 01:29:32;;;;;;;9.10;8.32;;;15.90;1.00;;;;;;5076670;28;20205;-84
2023/09/03 01:32:00;;;;;;;8.88;8.18;;;15.90;1.00;;;;;;5077362;28;20819;-85
2023/09/03 01:34:26;;;;;;;8.85;8.05;;;15.80;1.00;;;;;;5094447;28;20183;-85
2023/09/03 01:36:52;;;;;;;8.75;8.05;;;15.70;1.00;;;;;;5076377;28;20180;-86
2023/09/03 01:39:19;;;;;;;8.32;7.63;;;15.70;1.00;;;;;;5077120;28;20234;-85
2023/09/03 01:41:45;;;;;;;9.02;8.32;;;15.70;1.00;;;;;;5075708;28;20196;-85
2023/09/03 01:44:11;;;;;;;8.75;7.95;;;15.70;1.00;;;;;;5077224;28;20207;-85
2023/09/03 01:46:45;;;;;;;9.25;8.10;;;15.60;1.00;;;;;;5076017;28;21104;-85
2023/09/03 01:49:30;;;;;;;9.38;8.57;;;15.60;99.90;;;;;;5075349;28;20290;-85
2023/09/03 01:52:14;;;;;;;9.13;8.32;;;15.60;99.90;;;;;;5085205;28;20537;-84
2023/09/03 01:54:47;;;;;;;9.20;8.30;;;15.70;99.90;;;;;;5075946;28;20185;-84
2023/09/03 01:57:18;;;;;;;8.77;7.97;;;15.70;1.00;;;;;;5096641;28;20177;-84
2023/09/03 01:59:48;;;;;;;8.48;7.78;;;15.70;1.00;;;;;;5080016;28;20212;-85
2023/09/03 02:02:16;;;;;;;8.45;7.38;;;15.70;99.90;;;;;;5080418;28;20180;-84
2023/09/03 02:04:42;;;;;;;7.95;7.15;;;15.70;1.00;;;;;;5098089;28;20678;-83
2023/09/03 02:07:08;;;;;;;7.47;6.88;;;15.70;1.00;;;;;;5097958;28;20181;-85
2023/09/03 02:09:33;;;;;;;7.82;7.15;;;15.60;99.90;;;;;;5079618;28;20203;-83
2023/09/03 02:11:59;;;;;;;7.45;6.75;;;15.60;64.40;;;;;;5097667;28;20176;-83
2023/09/03 02:14:26;;;;;;;6.97;6.38;;;15.60;1.00;;;;;;5080077;28;20180;-84
2023/09/03 02:16:53;;;;;;;8.07;6.82;;;15.60;1.00;;;;;;5078827;28;20184;-84
2023/09/03 02:19:18;;;;;;;6.88;6.20;;;15.60;1.00;;;;;;5080368;28;20223;-83
2023/09/03 02:21:44;;;;;;;8.57;6.93;;;15.50;1.00;;;;;;5098145;28;21124;-83
2023/09/03 02:24:09;;;;;;;7.63;6.93;;;15.60;1.00;;;;;;5079931;28;20203;-84
2023/09/03 02:26:42;;;;;;;8.05;6.80;;;15.50;1.00;;;;;;5080524;28;20172;-84
2023/09/03 02:29:08;;;;;;;7.38;6.50;;;15.50;57.80;;;;;;5078925;28;20204;-84
2023/09/03 02:31:34;;;;;;;7.00;6.30;;;15.50;1.00;;;;;;5097354;28;20180;-84
2023/09/03 02:33:59;;;;;;;7.60;6.97;;;15.50;1.00;;;;;;5097454;28;20853;-83
2023/09/03 02:36:25;;;;;;;8.40;7.70;;;15.50;1.00;;;;;;5098075;28;20697;-84
2023/09/03 02:39:05;;;;;;;9.38;6.97;;;15.50;1.00;;;;;;5097610;28;20204;-84
2023/09/03 02:41:31;;;;;;;8.15;7.32;;;15.50;1.00;;;;;;5096852;28;20196;-85
2023/09/03 02:43:58;;;;;;;8.18;7.38;;;15.50;1.00;;;;;;5079223;28;20236;-85
2023/09/03 02:46:25;;;;;;;7.50;6.72;;;15.50;1.00;;;;;;5079672;28;20281;-84
2023/09/03 02:48:51;;;;;;;8.18;7.25;;;15.50;1.00;;;;;;5080356;28;20204;-85
2023/09/03 02:51:17;;;;;;;8.00;7.22;;;15.50;99.90;;;;;;5078851;28;20177;-84
2023/09/03 02:53:43;;;;;;;8.18;6.60;;;15.40;96.90;;;;;;5078699;28;20677;-85
2023/09/03 02:56:13;;;;;;;7.90;7.20;;;15.40;1.00;;;;;;5077951;28;20207;-84
2023/09/03 02:58:39;;;;;;;8.25;7.45;;;15.40;1.00;;;;;;5079630;28;20238;-86
2023/09/03 03:01:14;;;;;;;8.50;7.70;;;15.40;1.00;;;;;;5079108;28;20855;-85
2023/09/03 03:03:41;;;;;;;8.27;7.30;;;15.40;1.00;;;;;;5095071;28;20180;-85
2023/09/03 03:06:06;;;;;;;7.88;7.18;;;15.30;99.90;;;;;;5078366;28;20185;-85
2023/09/03 03:08:32;;;;;;;8.20;7.50;;;15.30;1.00;;;;;;5097998;28;20665;-85
2023/09/03 03:11:07;;;;;;;8.00;7.20;;;15.40;99.90;;;;;;5096874;28;20223;-85
2023/09/03 03:13:33;;;;;;;8.05;7.25;;;15.30;99.90;;;;;;5079551;28;20190;-86
2023/09/03 03:16:06;;;;;;;8.23;7.40;;;15.10;99.90;;;;;;5079026;28;20188;-86
2023/09/03 03:18:35;;;;;;;8.48;7.65;;;15.20;1.00;;;;;;5078293;28;20181;-86
2023/09/03 03:21:07;;;;;;;8.18;7.40;;;15.10;99.90;;;;;;5079013;28;20232;-87
2023/09/03 03:23:34;;;;;;;8.23;7.45;;;15.10;1.00;;;;;;5078190;28;20177;-85
2023/09/03 03:26:00;;;;;;;7.70;7.00;;;15.10;99.90;;;;;;5076882;28;20181;-85
2023/09/03 03:28:26;;;;;;;7.60;6.88;;;15.00;1.00;;;;;;5095817;28;20203;-84
2023/09/03 03:30:51;;;;;;;8.00;7.28;;;15.00;99.90;;;;;;5079412;28;20211;-84
2023/09/03 03:33:17;;;;;;;8.25;7.45;;;15.00;99.90;;;;;;5096003;28;20195;-84
2023/09/03 03:35:42;;;;;;;8.73;7.78;;;15.00;99.90;;;;;;5078104;28;20181;-84
2023/09/03 03:38:08;;;;;;;7.95;7.30;;;15.00;99.90;;;;;;5096973;28;20283;-84
2023/09/03 03:40:34;;;;;;;9.80;8.60;;;14.90;99.90;;;;;;5077984;28;20212;-85
2023/09/03 03:43:00;;;;;;;8.05;7.45;;;14.90;99.90;;;;;;5093931;28;20215;-84
2023/09/03 03:45:25;;;;;;;8.25;7.53;;;14.90;30.90;;;;;;5078268;28;20225;-85
2023/09/03 03:47:51;;;;;;;8.63;7.32;;;14.90;99.90;;;;;;5077920;28;20180;-85
2023/09/03 03:50:16;;;;;;;8.70;7.90;;;14.90;99.90;;;;;;5083488;28;20212;-86
2023/09/03 03:52:42;;;;;;;9.75;8.52;;;14.90;99.90;;;;;;5086641;28;20191;-84
2023/09/03 03:55:08;;;;;;;8.43;7.72;;;14.90;99.90;;;;;;5088501;28;20191;-87
2023/09/03 03:57:33;;;;;;;8.52;7.72;;;14.90;99.90;;;;;;5090282;28;20192;-85
2023/09/03 03:59:59;;;;;;;8.45;7.45;;;14.90;1.00;;;;;;5087098;28;20227;-87
2023/09/03 04:02:25;;;;;;;8.18;7.47;;;14.90;1.00;;;;;;5089475;28;20588;-84
2023/09/03 04:04:53;;;;;;;8.88;7.88;;;14.90;1.00;;;;;;5088939;28;20195;-84
2023/09/03 04:07:19;;;;;;;8.32;7.15;;;14.90;99.90;;;;;;5088088;28;20635;-84
2023/09/03 04:09:45;;;;;;;9.15;8.25;;;14.90;99.90;;;;;;5089131;28;20201;-84
2023/09/03 04:12:11;;;;;;;8.63;7.85;;;14.80;99.90;;;;;;5087943;28;20307;-86
2023/09/03 04:14:37;;;;;;;9.65;8.75;;;15.50;99.90;;;;;;5087284;28;20181;-83
2023/09/03 04:17:03;;;;;;;8.82;7.97;;;14.90;99.90;;;;;;5094462;28;20494;-83
2023/09/03 04:19:29;;;;;;;9.00;8.13;;;14.90;99.90;;;;;;5104871;28;20196;-84
2023/09/03 15:28:30;;;;;;;3.28;1.10;;;20.70;92.90;;;;;;5099009;28;20336;-86
2023/09/03 15:30:56;;;;;;;2.10;1.40;;;20.60;97.30;;;;;;4982217;28;20606;-69
2023/09/03 15:33:22;;;;;;;1.50;1.20;;;20.70;85.70;;;;;;4986338;28;20195;-70
2023/09/03 15:35:47;;;;;;;2.60;1.27;;;20.70;81.10;;;;;;4985421;28;20204;-70
2023/09/03 15:38:13;;;;;;;2.05;1.13;;;20.60;91.80;;;;;;4994794;28;20253;-70
2023/09/03 15:40:40;;;;;;;2.00;0.90;;;20.60;88.70;;;;;;5005381;28;20192;-71
2023/09/03 15:43:06;;;;;;;3.53;1.13;;;20.60;70.50;;;;;;5006184;28;20263;-71
2023/09/03 15:45:34;;;;;;;1.15;1.05;;;20.70;75.30;;;;;;5004828;28;20214;-70
2023/09/03 15:48:02;;;;;;;1.67;1.25;;;20.70;80.00;;;;;;5005183;28;20337;-71
2023/09/03 15:50:28;;;;;;;2.90;1.38;;;20.60;58.50;;;;;;5005309;28;20172;-70
2023/09/03 15:52:54;;;;;;;1.77;1.30;;;20.50;39.80;;;;;;5005945;28;20643;-70
2023/09/03 15:55:21;;;;;;;2.15;1.10;;;20.50;59.30;;;;;;5004829;28;20196;-70
2023/09/03 15:57:46;;;;;;;1.25;1.15;;;20.40;55.20;;;;;;5005462;28;20239;-70
2023/09/03 16:00:14;;;;;;;2.05;1.40;;;20.40;66.30;;;;;;5006077;28;20595;-70
2023/09/03 16:02:41;;;;;;;1.70;1.50;;;20.40;80.80;;;;;;5005268;28;20746;-70
2023/09/03 16:05:06;;;;;;;2.30;1.30;;;20.20;89.80;;;;;;5004986;28;20627;-70
2023/09/03 16:07:32;;;;;;;1.20;1.00;;;20.20;85.70;;;;;;5003424;28;20201;-69
2023/09/03 16:09:58;;;;;;;1.40;1.17;;;20.20;74.30;;;;;;5003183;28;20183;-70
2023/09/03 16:12:23;;;;;;;1.95;1.17;;;20.20;40.90;;;;;;5004997;28;20180;-70
2023/09/03 16:14:51;;;;;;;1.45;1.20;;;20.10;67.40;;;;;;5003937;28;20608;-70
2023/09/03 16:17:18;;;;;;;1.60;1.13;;;20.10;85.20;;;;;;5005072;28;20217;-69
2023/09/03 16:19:44;;;;;;;1.65;1.30;;;20.10;76.00;;;;;;5004841;28;20180;-71
2023/09/03 16:22:10;;;;;;;1.23;1.02;;;20.10;75.80;;;;;;5004956;28;20218;-70
2023/09/03 16:24:35;;;;;;;1.30;1.20;;;20.00;61.80;;;;;;5005169;28;20206;-69
2023/09/03 16:27:01;;;;;;;2.35;1.17;;;20.00;56.30;;;;;;5001226;28;20183;-70
2023/09/03 16:29:27;;;;;;;1.13;1.02;;;19.90;61.70;;;;;;5005035;28;21002;-70
2023/09/03 16:31:53;;;;;;;2.45;1.27;;;19.90;50.50;;;;;;5004807;28;20613;-70
2023/09/03 16:34:19;;;;;;;1.52;1.02;;;19.90;60.90;;;;;;5005185;28;20774;-70
2023/09/03 16:36:46;;;;;;;1.30;1.20;;;19.80;57.00;;;;;;4995850;28;20200;-69
2023/09/03 16:39:12;;;;;;;2.58;1.20;;;19.80;50.40;;;;;;5004801;28;20609;-70
2023/09/03 16:41:37;;;;;;;1.65;1.13;;;19.80;55.80;;;;;;5004782;28;20259;-69
2023/09/03 16:44:03;;;;;;;2.80;1.30;;;19.70;58.80;;;;;;5004076;28;20187;-69
2023/09/03 16:46:29;;;;;;;1.10;1.00;;;19.70;65.20;;;;;;5002136;28;20183;-70
2023/09/03 16:48:55;;;;;;;1.45;1.00;;;19.70;71.20;;;;;;4987258;28;20615;-70
2023/09/03 16:51:20;;;;;;;1.52;0.90;;;19.70;72.00;;;;;;5004569;28;20198;-69
2023/09/03 16:53:46;;;;;;;1.40;1.17;;;19.60;60.40;;;;;;5005134;28;20638;-70
2023/09/03 16:56:12;;;;;;;1.48;1.13;;;19.60;61.30;;;;;;5003786;28;20191;-69
2023/09/03 16:58:37;;;;;;;1.65;1.10;;;19.60;40.80;;;;;;4995021;28;20208;-70
2023/09/03 17:01:03;;;;;;;1.95;1.10;;;19.60;21.00;;;;;;5003756;28;20204;-70
2023/09/03 17:03:29;;;;;;;2.10;1.30;;;19.50;55.50;;;;;;5004835;28;20651;-71
2023/09/03 17:05:55;;;;;;;2.00;1.10;;;19.50;65.50;;;;;;5003706;28;20231;-69
2023/09/03 17:08:21;;;;;;;2.28;1.38;;;19.40;68.60;;;;;;5004811;28;20214;-69
2023/09/03 17:10:46;;;;;;;1.50;1.02;;;19.30;56.30;;;;;;5004591;28;20184;-70
2023/09/03 17:13:13;;;;;;;1.92;1.20;;;19.20;32.90;;;;;;5004947;28;20187;-69
2023/09/03 17:15:40;;;;;;;3.17;1.20;;;19.10;34.50;;;;;;5003976;28;20202;-70
2023/09/03 17:18:07;;;;;;;1.48;1.20;;;19.10;62.30;;;;;;5004615;28;20242;-69
2023/09/03 17:20:33;;;;;;;2.20;1.55;;;19.00;75.80;;;;;;5004614;28;20709;-71
2023/09/03 17:22:59;;;;;;;1.58;1.08;;;18.90;83.60;;;;;;5004659;28;20214;-70
2023/09/03 17:25:25;;;;;;;1.77;1.23;;;18.80;96.90;;;;;;5004356;28;20215;-70
2023/09/03 17:27:51;;;;;;;1.77;1.20;;;18.70;92.50;;;;;;5007746;28;20196;-70
2023/09/03 17:30:17;;;;;;;1.77;1.15;;;18.60;95.30;;;;;;5008630;28;20206;-70
2023/09/03 17:32:44;;;;;;;1.98;1.50;;;18.50;99.90;;;;;;5008114;28;20274;-69
2023/09/03 17:35:11;;;;;;;2.95;1.27;;;18.40;99.90;;;;;;5008011;28;20200;-69
2023/09/03 17:37:38;;;;;;;3.75;1.20;;;18.30;99.90;;;;;;5007418;28;20203;-69
2023/09/03 17:40:07;;;;;;;1.50;1.40;;;18.30;99.90;;;;;;5008571;28;20211;-70
2023/09/03 17:42:37;;;;;;;2.35;1.30;;;18.20;99.90;;;;;;5007811;28;20212;-69
2023/09/03 17:45:03;;;;;;;1.33;1.23;;;18.20;99.90;;;;;;5007819;28;20225;-70
2023/09/03 17:47:29;;;;;;;1.42;1.33;;;18.10;99.90;;;;;;5007491;28;20184;-70
2023/09/03 17:49:55;;;;;;;1.33;1.20;;;18.00;99.90;;;;;;5008436;28;20183;-70
2023/09/03 17:52:21;;;;;;;1.40;1.30;;;17.90;99.90;;;;;;5007463;28;20676;-69
2023/09/03 17:54:47;;;;;;;2.05;1.38;;;17.80;99.90;;;;;;5008026;28;20179;-69
2023/09/03 17:57:13;;;;;;;2.03;1.30;;;17.80;99.90;;;;;;5004157;28;20246;-70
2023/09/03 17:59:38;;;;;;;1.45;1.10;;;17.70;99.90;;;;;;5006696;28;20198;-70
2023/09/03 18:02:04;;;;;;;1.40;1.30;;;17.60;99.90;;;;;;4989825;28;20745;-70
2023/09/03 18:04:34;;;;;;;1.38;1.27;;;17.60;99.90;;;;;;5008155;28;20187;-70
2023/09/03 18:07:00;;;;;;;1.55;1.17;;;17.50;99.90;;;;;;5005445;28;20193;-70
2023/09/03 18:09:27;;;;;;;1.60;1.20;;;17.40;99.90;;;;;;5007260;28;20670;-70
2023/09/03 18:11:53;;;;;;;3.20;1.65;;;17.40;99.90;;;;;;5007015;28;20553;-70
2023/09/03 18:14:18;;;;;;;3.15;1.50;;;17.40;99.90;;;;;;5007567;28;20193;-70
2023/09/03 18:16:44;;;;;;;1.42;1.33;;;17.30;99.90;;;;;;5006427;28;20184;-70
2023/09/03 18:19:10;;;;;;;2.75;1.60;;;17.30;99.90;;;;;;5006982;28;21593;-70
2023/09/03 18:21:36;;;;;;;3.50;1.88;;;17.30;99.90;;;;;;5006814;28;20651;-70
2023/09/03 18:24:03;;;;;;;2.72;1.58;;;17.30;99.90;;;;;;5006359;28;20199;-69
2023/09/03 18:26:28;;;;;;;2.92;1.35;;;17.30;1.00;;;;;;5001995;28;20176;-70
2023/09/03 18:28:56;;;;;;;1.90;1.40;;;17.20;1.00;;;;;;5003272;28;20682;-69
2023/09/03 18:31:22;;;;;;;2.13;1.55;;;17.20;1.00;;;;;;5007484;28;20674;-70
2023/09/03 18:33:47;;;;;;;1.95;1.60;;;17.10;1.00;;;;;;5007176;28;20201;-70
2023/09/03 18:36:13;;;;;;;1.50;1.35;;;17.10;1.00;;;;;;5006750;28;20198;-70
2023/09/03 18:38:40;;;;;;;2.92;1.77;;;17.00;1.00;;;;;;5006112;28;20258;-70
2023/09/03 18:41:06;;;;;;;1.80;1.40;;;17.00;1.00;;;;;;5003790;28;20674;-70
2023/09/03 18:43:32;;;;;;;1.52;1.40;;;17.00;1.00;;;;;;5004252;28;20180;-70
2023/09/03 18:46:03;;;;;;;2.50;1.88;;;16.90;1.00;;;;;;5003277;28;20193;-70
2023/09/03 18:48:29;;;;;;;1.70;1.45;;;16.90;1.00;;;;;;5006312;28;20195;-70
2023/09/03 18:50:55;;;;;;;1.60;1.50;;;16.90;47.20;;;;;;5006799;28;20194;-69
2023/09/03 18:53:21;;;;;;;2.22;1.60;;;16.80;74.30;;;;;;5007004;28;20187;-70
2023/09/03 18:55:47;;;;;;;2.28;1.70;;;16.80;62.60;;;;;;5006453;28;20194;-70
2023/09/03 18:58:13;;;;;;;1.67;1.33;;;16.70;26.80;;;;;;5003112;28;20215;-70
2023/09/03 19:00:39;;;;;;;2.17;1.33;;;16.70;99.90;;;;;;4999918;28;20189;-70
2023/09/03 19:03:06;;;;;;;2.88;1.70;;;16.70;96.40;;;;;;5004056;28;20716;-69
2023/09/03 19:05:40;;;;;;;1.60;1.50;;;16.60;99.90;;;;;;5005434;28;20206;-69
2023/09/03 19:08:07;;;;;;;2.30;2.10;;;16.60;99.90;;;;;;5005981;28;20330;-68
2023/09/03 19:10:34;;;;;;;2.85;1.80;;;16.60;99.90;;;;;;4988949;28;20180;-68
2023/09/03 19:13:04;;;;;;;3.13;1.88;;;16.50;99.90;;;;;;5006407;28;20178;-70
2023/09/03 19:15:38;;;;;;;1.63;1.50;;;16.50;99.90;;;;;;5004579;28;20733;-70
2023/09/03 19:18:06;;;;;;;1.90;1.60;;;16.40;99.90;;;;;;5002360;28;20477;-70
2023/09/03 19:20:32;;;;;;;2.13;1.67;;;16.40;99.90;;;;;;5002381;28;20190;-70
2023/09/03 19:22:57;;;;;;;3.20;1.80;;;16.30;99.90;;;;;;5001274;28;20231;-70
2023/09/03 19:25:23;;;;;;;2.10;1.80;;;16.30;99.90;;;;;;5003694;28;20529;-70
2023/09/03 19:27:48;;;;;;;2.33;1.75;;;16.30;99.90;;;;;;4998112;28;20203;-70
2023/09/03 19:30:14;;;;;;;2.38;1.90;;;16.20;99.90;;;;;;5002184;28;20203;-70
2023/09/03 19:32:40;;;;;;;2.03;1.70;;;16.20;99.90;;;;;;5005630;28;20219;-70
2023/09/03 19:35:07;;;;;;;2.13;1.92;;;16.20;99.90;;;;;;5005813;28;20184;-70
2023/09/03 19:37:36;;;;;;;1.60;1.50;;;16.20;99.90;;;;;;5005390;28;20200;-70
2023/09/03 19:40:05;;;;;;;1.90;1.80;;;16.20;99.90;;;;;;5006251;28;20552;-70
2023/09/03 19:42:30;;;;;;;3.90;1.80;;;16.20;99.90;;;;;;5005532;28;20302;-70
2023/09/03 19:44:56;;;;;;;2.55;1.80;;;16.20;99.90;;;;;;5005810;28;20266;-70
2023/09/03 19:47:22;;;;;;;2.40;2.00;;;16.20;99.90;;;;;;5005500;28;20718;-70
2023/09/03 19:49:47;;;;;;;2.50;1.73;;;16.20;99.90;;;;;;5006322;28;20206;-69
2023/09/03 19:52:16;;;;;;;1.75;1.60;;;16.10;99.90;;;;;;5005502;28;20191;-70
2023/09/03 19:54:42;;;;;;;3.53;2.15;;;16.10;99.90;;;;;;5006239;28;20270;-69
2023/09/03 19:57:07;;;;;;;2.42;1.90;;;16.00;99.90;;;;;;5005261;28;20274;-70
2023/09/03 19:59:33;;;;;;;2.08;1.63;;;16.00;99.90;;;;;;5005463;28;20207;-70
2023/09/03 20:01:59;;;;;;;7.43;2.42;;;16.00;99.90;;;;;;5005396;28;20206;-70
2023/09/03 20:04:25;;;;;;;1.90;1.80;;;15.90;99.90;;;;;;5005808;28;20274;-70
2023/09/03 20:06:50;;;;;;;2.00;1.80;;;15.90;1.00;;;;;;5004692;28;20187;-70
2023/09/03 20:09:16;;;;;;;1.88;1.75;;;15.90;1.00;;;;;;5005706;28;20218;-70
2023/09/03 20:11:42;;;;;;;2.22;1.73;;;15.90;1.00;;;;;;5005506;28;21109;-70
2023/09/03 20:14:10;;;;;;;2.30;1.83;;;15.80;1.00;;;;;;5004937;28;20473;-69
2023/09/03 20:16:35;;;;;;;2.20;1.63;;;15.80;1.00;;;;;;5004436;28;20183;-70
2023/09/03 20:19:02;;;;;;;2.25;1.80;;;15.80;1.00;;;;;;5005208;28;20571;-70
2023/09/03 20:21:28;;;;;;;2.40;2.20;;;15.70;1.00;;;;;;5005332;28;20202;-70
2023/09/03 20:23:53;;;;;;;2.47;1.88;;;15.70;1.00;;;;;;5005527;28;20187;-70
2023/09/03 20:26:19;;;;;;;2.63;2.30;;;15.60;1.00;;;;;;5004791;28;20285;-70
2023/09/03 20:28:45;;;;;;;3.28;1.73;;;15.70;1.00;;;;;;5005038;28;20230;-70
2023/09/03 20:31:11;;;;;;;2.72;2.20;;;15.60;1.00;;;;;;5005300;28;20246;-70
2023/09/03 20:33:36;;;;;;;2.25;1.88;;;15.60;1.00;;;;;;5005378;28;20242;-69
2023/09/03 20:36:02;;;;;;;2.15;2.03;;;15.50;1.00;;;;;;5004572;28;20187;-70
2023/09/03 20:38:28;;;;;;;2.42;1.80;;;15.50;1.00;;;;;;5004794;28;20674;-70
2023/09/03 20:41:00;;;;;;;2.08;1.85;;;15.50;1.00;;;;;;5005005;28;20199;-70
2023/09/03 20:43:26;;;;;;;2.30;1.90;;;15.40;1.00;;;;;;5004864;28;20175;-70
2023/09/03 20:45:53;;;;;;;2.00;1.80;;;15.40;1.00;;;;;;5004500;28;20183;-70
2023/09/03 20:48:19;;;;;;;2.25;1.77;;;15.40;1.00;;;;;;5004344;28;20195;-69
2023/09/03 20:50:45;;;;;;;2.47;1.70;;;15.40;1.00;;;;;;4997006;28;20201;-70
2023/09/03 20:53:11;;;;;;;3.03;1.80;;;15.40;1.00;;;;;;5004843;28;20233;-70
2023/09/03 20:55:37;;;;;;;1.77;1.67;;;15.30;1.00;;;;;;5004404;28;20190;-70
2023/09/03 20:58:07;;;;;;;2.20;2.00;;;15.30;1.00;;;;;;5004734;28;20200;-69
2023/09/03 21:00:38;;;;;;;2.13;1.92;;;15.30;1.00;;;;;;5005249;28;20185;-70
2023/09/03 21:03:05;;;;;;;2.35;2.08;;;15.20;1.00;;;;;;5008968;28;20191;-70
2023/09/03 21:05:31;;;;;;;2.80;2.20;;;15.20;1.00;;;;;;5008630;28;20183;-70
2023/09/03 21:07:57;;;;;;;2.22;2.00;;;15.10;1.00;;;;;;5007918;28;20234;-69
2023/09/03 21:10:24;;;;;;;3.55;2.50;;;15.00;1.00;;;;;;5008893;28;20350;-70
2023/09/03 21:12:50;;;;;;;2.20;2.00;;;14.50;1.00;;;;;;5008150;28;20278;-69
2023/09/03 21:15:16;;;;;;;2.55;1.75;;;15.00;1.00;;;;;;5008434;28;20270;-70
2023/09/03 21:17:42;;;;;;;2.40;1.90;;;15.00;1.00;;;;;;4989146;28;20686;-69
2023/09/03 21:20:09;;;;;;;2.08;1.98;;;15.00;1.00;;;;;;5008891;28;20341;-69
2023/09/03 21:22:34;;;;;;;1.77;1.67;;;15.10;1.00;;;;;;5008238;28;20631;-70
2023/09/03 21:25:01;;;;;;;2.38;2.03;;;15.10;1.00;;;;;;5008183;28;20203;-69
2023/09/03 21:27:30;;;;;;;2.20;1.80;;;15.10;1.00;;;;;;5002542;28;20226;-69
2023/09/03 21:29:56;;;;;;;2.22;2.03;;;15.20;1.00;;;;;;5009621;28;20200;-69
2023/09/03 21:32:22;;;;;;;2.30;1.90;;;15.10;1.00;;;;;;5007917;28;20199;-70
2023/09/03 21:34:48;;;;;;;2.22;2.03;;;15.10;1.00;;;;;;5007363;28;20697;-70
2023/09/03 21:37:14;;;;;;;2.47;2.00;;;15.10;1.00;;;;;;5007897;28;20605;-70
2023/09/03 21:39:40;;;;;;;2.35;2.13;;;15.00;1.00;;;;;;5008568;28;20222;-70
2023/09/03 21:42:05;;;;;;;3.25;2.30;;;14.90;1.00;;;;;;5007868;28;20596;-70
2023/09/03 21:44:31;;;;;;;3.25;1.90;;;14.90;1.00;;;;;;5008334;28;20215;-70
2023/09/03 21:46:57;;;;;;;1.90;1.80;;;14.90;1.00;;;;;;5007280;28;20184;-69
2023/09/03 21:49:26;;;;;;;2.05;1.73;;;14.90;1.00;;;;;;4990465;28;20200;-70
2023/09/03 21:51:52;;;;;;;2.40;2.20;;;14.80;1.00;;;;;;5004634;28;20242;-69
2023/09/03 21:54:18;;;;;;;1.95;1.77;;;14.90;1.00;;;;;;5008328;28;20195;-69
2023/09/03 21:56:44;;;;;;;2.72;2.08;;;14.90;1.00;;;;;;5006669;28;20180;-70
2023/09/03 21:59:10;;;;;;;2.35;1.83;;;14.80;1.00;;;;;;5006536;28;20203;-70
2023/09/03 22:01:36;;;;;;;2.58;2.05;;;14.70;1.00;;;;;;5005493;28;20934;-69
2023/09/03 22:04:04;;;;;;;2.13;1.95;;;14.80;1.00;;;;;;5006141;28;20183;-69
2023/09/03 22:06:29;;;;;;;1.98;1.75;;;14.80;1.00;;;;;;5004912;28;20207;-70
2023/09/03 22:08:55;;;;;;;2.15;1.90;;;14.80;1.00;;;;;;5005246;28;20238;-70
2023/09/03 22:11:21;;;;;;;1.98;1.70;;;14.80;1.00;;;;;;5005897;28;20196;-70
2023/09/03 22:13:48;;;;;;;2.13;1.80;;;14.80;1.00;;;;;;5001742;28;20191;-70
2023/09/03 22:16:13;;;;;;;2.63;1.90;;;14.70;1.00;;;;;;5007143;28;20578;-70
2023/09/03 22:18:39;;;;;;;2.05;1.83;;;14.70;1.00;;;;;;4989635;28;20215;-70
2023/09/03 22:21:05;;;;;;;2.20;2.00;;;14.70;1.00;;;;;;5007172;28;20204;-70
2023/09/03 22:23:30;;;;;;;2.50;1.90;;;14.70;1.00;;;;;;5007430;28;20217;-70
2023/09/03 22:25:56;;;;;;;2.65;1.98;;;14.70;1.00;;;;;;5006610;28;20183;-70
2023/09/03 22:28:21;;;;;;;2.40;2.17;;;14.60;1.00;;;;;;5006983;28;20633;-70
2023/09/03 22:30:47;;;;;;;2.30;2.10;;;14.60;1.00;;;;;;5006088;28;20426;-70
2023/09/03 22:33:13;;;;;;;2.15;1.90;;;14.60;1.00;;;;;;5004262;28;20588;-69
2023/09/03 22:35:38;;;;;;;2.17;1.97;;;14.60;1.00;;;;;;5005054;28;20408;-69
2023/09/03 22:38:04;;;;;;;2.78;2.22;;;14.60;1.00;;;;;;5007265;28;20204;-70
2023/09/03 22:40:29;;;;;;;2.33;1.95;;;14.60;1.00;;;;;;5007051;28;20651;-70
2023/09/03 22:42:55;;;;;;;1.95;1.85;;;14.60;1.00;;;;;;5006665;28;20199;-70
2023/09/03 22:45:22;;;;;;;3.17;2.00;;;14.60;1.00;;;;;;5006862;28;20183;-70
2023/09/03 22:47:48;;;;;;;3.22;1.92;;;14.60;1.00;;;;;;5006204;28;20262;-70
2023/09/03 22:50:14;;;;;;;2.30;2.10;;;14.40;1.00;;;;;;5004264;28;20187;-70
2023/09/03 22:52:40;;;;;;;2.17;1.90;;;14.40;1.00;;;;;;5006421;28;20188;-70
2023/09/03 22:55:05;;;;;;;3.53;2.10;;;14.30;1.00;;;;;;5006707;28;20188;-70
2023/09/03 22:57:31;;;;;;;2.30;1.92;;;14.30;1.00;;;;;;5005929;28;20278;-69
2023/09/03 22:59:57;;;;;;;2.58;1.95;;;14.40;1.00;;;;;;5007079;28;20187;-70
2023/09/03 23:02:23;;;;;;;2.00;1.80;;;14.30;1.00;;;;;;5006268;28;20208;-69
2023/09/03 23:04:49;;;;;;;2.03;1.83;;;14.30;1.00;;;;;;5006325;28;20658;-69
2023/09/03 23:07:14;;;;;;;2.22;1.98;;;14.20;47.40;;;;;;5006105;28;20197;-70
2023/09/03 23:09:40;;;;;;;2.08;1.98;;;14.00;1.00;;;;;;5006815;28;20190;-70
2023/09/03 23:12:06;;;;;;;2.20;1.92;;;14.00;99.90;;;;;;5006380;28;20668;-70
2023/09/03 23:14:31;;;;;;;2.00;1.90;;;14.00;99.90;;;;;;5006538;28;20275;-70
2023/09/03 23:16:57;;;;;;;2.30;2.05;;;14.00;99.90;;;;;;5005647;28;20222;-70
2023/09/03 23:19:23;;;;;;;2.53;2.33;;;13.90;99.90;;;;;;5006399;28;20207;-70
2023/09/03 23:21:49;;;;;;;2.20;2.00;;;13.90;1.00;;;;;;5006279;28;20199;-70
2023/09/03 23:24:14;;;;;;;2.42;2.17;;;13.80;1.00;;;;;;5006125;28;20183;-70
2023/09/03 23:26:41;;;;;;;2.85;2.30;;;13.90;99.90;;;;;;5005381;28;20690;-70
2023/09/03 23:29:07;;;;;;;2.30;2.10;;;13.90;1.00;;;;;;5006308;28;20678;-70
2023/09/03 23:31:33;;;;;;;1.95;1.85;;;13.90;99.90;;;;;;5006532;28;20188;-70
2023/09/03 23:33:59;;;;;;;2.30;2.10;;;14.00;1.00;;;;;;5006610;28;20619;-70
2023/09/03 23:36:24;;;;;;;2.35;2.15;;;14.00;1.00;;;;;;5004752;28;20975;-70
2023/09/03 23:38:50;;;;;;;2.28;2.10;;;13.90;1.00;;;;;;5005677;28;20249;-70
2023/09/03 23:41:16;;;;;;;3.70;2.10;;;14.00;1.00;;;;;;5005694;28;20568;-70
2023/09/03 23:43:41;;;;;;;2.67;2.25;;;13.90;1.00;;;;;;5006074;28;20191;-70
2023/09/03 23:46:07;;;;;;;2.80;2.33;;;13.70;1.00;;;;;;5005232;28;20662;-70
2023/09/03 23:48:32;;;;;;;2.92;2.47;;;13.80;1.00;;;;;;5005957;28;20211;-70
2023/09/03 23:50:59;;;;;;;2.72;2.33;;;13.80;1.00;;;;;;5005851;28;20265;-70
2023/09/03 23:53:25;;;;;;;3.03;2.35;;;13.90;1.00;;;;;;5005787;28;20176;-70
2023/09/03 23:55:52;;;;;;;2.92;2.22;;;13.70;1.00;;;;;;5005627;28;20214;-70